createdAt,value
2023-03-11T00:02:05.783Z,36.42
2023-03-11T00:06:05.854Z,31.49
2023-03-11T00:10:06.028Z,33.55
2023-03-11T00:14:06.221Z,43.51
2023-03-11T00:18:06.388Z,40.89
2023-03-11T00:22:06.554Z,34.07
2023-03-11T00:26:06.735Z,43.59
2023-03-11T00:30:06.919Z,45.25
2023-03-11T00:34:07.118Z,31.95
2023-03-11T00:38:07.281Z,34.41
2023-03-11T00:42:07.457Z,40.13
2023-03-11T00:46:07.710Z,43.40
2023-03-11T00:50:07.869Z,43.06
2023-03-11T00:54:08.037Z,35.52
2023-03-11T00:58:08.254Z,47.34
2023-03-11T01:02:08.456Z,43.55
2023-03-11T01:06:08.644Z,48.24
2023-03-11T01:10:08.855Z,41.84
2023-03-11T01:14:09.042Z,42.65
2023-03-11T01:18:09.251Z,39.25
2023-03-11T01:22:09.444Z,50.64
2023-03-11T01:26:09.612Z,39.98
2023-03-11T01:30:09.819Z,49.13
2023-03-11T01:34:10.001Z,40.99
2023-03-11T01:38:10.205Z,50.39
2023-03-11T01:42:10.413Z,37.56
2023-03-11T01:46:10.637Z,38.57
2023-03-11T01:50:10.832Z,49.42
2023-03-11T01:54:11.063Z,36.73
2023-03-11T01:58:11.268Z,46.29
2023-03-11T02:02:11.524Z,42.19
2023-03-11T02:06:11.701Z,37.80
2023-03-11T02:10:11.924Z,42.91
2023-03-11T02:14:12.128Z,44.46
2023-03-11T02:18:12.363Z,41.23
2023-03-11T02:22:12.567Z,36.86
2023-03-11T02:26:12.790Z,34.79
2023-03-11T02:30:13.033Z,51.29
2023-03-11T02:34:13.216Z,40.31
2023-03-11T02:38:13.165Z,47.61
2023-03-11T02:42:13.121Z,42.92
2023-03-11T02:46:13.115Z,45.92
2023-03-11T02:50:13.094Z,47.53
2023-03-11T02:54:13.033Z,44.47
2023-03-11T02:58:12.981Z,52.18
2023-03-11T03:02:12.944Z,41.08
2023-03-11T03:06:12.927Z,38.81
2023-03-11T03:10:12.883Z,49.16
2023-03-11T03:14:12.837Z,34.07
2023-03-11T03:18:12.941Z,40.42
2023-03-11T03:22:13.133Z,47.60
2023-03-11T03:26:13.365Z,41.14
2023-03-11T03:30:13.337Z,44.86
2023-03-11T03:34:13.299Z,46.53
2023-03-11T03:38:13.254Z,36.04
2023-03-11T03:42:13.230Z,49.65
2023-03-11T03:46:13.232Z,42.29
2023-03-11T03:50:13.152Z,43.48
2023-03-11T03:54:13.131Z,55.08
2023-03-11T03:58:13.092Z,47.92
2023-03-11T04:02:13.082Z,47.71
2023-03-11T04:06:13.103Z,41.06
2023-03-11T04:10:13.070Z,50.69
2023-03-11T04:14:13.032Z,49.57
2023-03-11T04:18:12.989Z,42.34
2023-03-11T04:22:12.976Z,45.90
2023-03-11T04:26:12.934Z,42.23
2023-03-11T04:30:12.911Z,39.11
2023-03-11T04:34:12.840Z,47.54
2023-03-11T04:38:12.803Z,48.31
2023-03-11T04:42:12.777Z,40.02
2023-03-11T04:46:13.003Z,45.94
2023-03-11T04:50:12.880Z,52.92
2023-03-11T04:54:12.834Z,43.76
2023-03-11T04:58:12.827Z,51.81
2023-03-11T05:02:13.028Z,46.85
2023-03-11T05:06:12.742Z,45.60
2023-03-11T05:10:12.729Z,44.96
2023-03-11T05:14:12.685Z,45.70
2023-03-11T05:18:12.680Z,48.14
2023-03-11T05:22:12.601Z,41.82
2023-03-11T05:26:12.589Z,40.15
2023-03-11T05:30:12.559Z,45.50
2023-03-11T05:34:12.613Z,41.13
2023-03-11T05:38:12.547Z,48.10
2023-03-11T05:42:12.544Z,46.13
2023-03-11T05:46:12.552Z,42.75
2023-03-11T05:50:12.485Z,44.03
2023-03-11T05:54:12.427Z,48.50
2023-03-11T05:58:12.406Z,47.07
2023-03-11T06:02:12.333Z,50.46
2023-03-11T06:06:12.320Z,44.49
2023-03-11T06:10:12.279Z,41.99
2023-03-11T06:14:12.292Z,50.02
2023-03-11T06:18:12.267Z,59.29
2023-03-11T06:22:12.201Z,45.20
2023-03-11T06:26:12.182Z,43.94
2023-03-11T06:30:12.139Z,53.75
2023-03-11T06:34:12.115Z,43.75
2023-03-11T06:38:12.095Z,52.28
2023-03-11T06:42:12.042Z,53.45
2023-03-11T06:46:12.079Z,47.34
2023-03-11T06:50:11.981Z,53.29
2023-03-11T06:54:11.955Z,57.85
2023-03-11T06:58:11.892Z,51.49
2023-03-11T07:02:11.859Z,44.59
2023-03-11T07:06:11.843Z,58.07
2023-03-11T07:10:11.816Z,56.09
2023-03-11T07:14:11.773Z,50.86
2023-03-11T07:18:11.746Z,49.87
2023-03-11T07:22:11.691Z,61.24
2023-03-11T07:26:11.655Z,53.08
2023-03-11T07:30:11.637Z,50.25
2023-03-11T07:34:11.689Z,52.28
2023-03-11T07:38:11.694Z,56.70
2023-03-11T07:42:11.948Z,60.91
2023-03-11T07:46:12.226Z,55.29
2023-03-11T07:50:12.327Z,53.10
2023-03-11T07:54:12.527Z,53.56
2023-03-11T07:58:12.746Z,49.32
2023-03-11T08:02:13.018Z,63.44
2023-03-11T08:06:13.143Z,62.87
2023-03-11T08:10:13.367Z,66.93
2023-03-11T08:14:13.556Z,62.53
2023-03-11T08:18:13.758Z,65.89
2023-03-11T08:22:13.973Z,71.73
2023-03-11T08:26:13.938Z,62.05
2023-03-11T08:30:13.912Z,63.25
2023-03-11T08:34:13.880Z,53.24
2023-03-11T08:38:13.825Z,67.34
2023-03-11T08:42:13.797Z,63.61
2023-03-11T08:46:13.783Z,75.13
2023-03-11T08:50:13.712Z,69.11
2023-03-11T08:54:13.693Z,78.00
2023-03-11T08:58:13.673Z,84.80
2023-03-11T09:02:13.595Z,81.14
2023-03-11T09:06:13.705Z,83.92
2023-03-11T09:10:13.885Z,79.35
2023-03-11T09:14:14.074Z,73.67
2023-03-11T09:18:14.274Z,69.07
2023-03-11T09:22:14.494Z,78.88
2023-03-11T09:26:14.703Z,82.43
2023-03-11T09:30:14.931Z,75.84
2023-03-11T09:34:16.221Z,77.91
2023-03-11T09:38:15.331Z,72.84
2023-03-11T09:42:15.536Z,83.09
2023-03-11T09:46:15.796Z,78.36
2023-03-11T09:50:15.969Z,76.14
2023-03-11T09:54:16.165Z,77.34
2023-03-11T09:58:16.377Z,76.26
2023-03-11T10:02:16.728Z,71.54
2023-03-11T10:06:16.768Z,72.09
2023-03-11T10:10:16.960Z,74.21
2023-03-11T10:14:17.142Z,77.52
2023-03-11T10:18:17.319Z,75.32
2023-03-11T10:22:17.488Z,74.13
2023-03-11T10:26:17.657Z,73.96
2023-03-11T10:30:17.840Z,75.32
2023-03-11T10:34:18.005Z,77.08
2023-03-11T10:38:18.123Z,83.56
2023-03-11T10:42:18.410Z,80.95
2023-03-11T10:46:18.631Z,87.92
2023-03-11T10:50:18.612Z,84.42
2023-03-11T10:54:18.750Z,94.30
2023-03-11T10:58:18.894Z,99.47
2023-03-11T11:02:19.009Z,89.99
2023-03-11T11:06:19.179Z,97.31
2023-03-11T11:10:19.503Z,96.77
2023-03-11T11:14:19.462Z,92.02
2023-03-11T11:18:19.648Z,96.86
2023-03-11T11:22:19.776Z,100.43
2023-03-11T11:26:19.926Z,90.04
2023-03-11T11:30:20.049Z,88.19
2023-03-11T11:34:21.842Z,93.54
2023-03-11T11:38:20.126Z,92.13
2023-03-11T11:42:20.093Z,86.79
2023-03-11T11:46:20.125Z,88.03
2023-03-11T11:50:19.993Z,84.80
2023-03-11T11:54:19.954Z,89.21
2023-03-11T11:58:19.922Z,77.65
2023-03-11T12:02:19.903Z,74.17
2023-03-11T12:06:19.839Z,75.19
2023-03-11T12:10:23.658Z,73.22
2023-03-11T12:14:19.775Z,73.50
2023-03-11T12:18:19.765Z,74.63
2023-03-11T12:22:19.721Z,69.68
2023-03-11T12:26:19.670Z,71.11
2023-03-11T12:30:19.617Z,75.65
2023-03-11T12:34:19.595Z,77.94
2023-03-11T12:38:19.566Z,74.57
2023-03-11T12:42:19.725Z,74.89
2023-03-11T12:46:19.917Z,72.96
2023-03-11T12:50:20.030Z,70.57
2023-03-11T12:54:20.134Z,73.51
2023-03-11T12:58:21.349Z,70.13
2023-03-11T13:02:20.441Z,72.95
2023-03-11T13:06:20.569Z,73.26
2023-03-11T13:10:20.691Z,65.55
2023-03-11T13:14:20.857Z,66.97
2023-03-11T13:18:20.988Z,68.18
2023-03-11T13:22:21.132Z,67.13
2023-03-11T13:26:21.304Z,65.14
2023-03-11T13:30:21.450Z,63.80
2023-03-11T13:34:21.585Z,64.01
2023-03-11T13:38:21.774Z,64.16
2023-03-11T13:42:21.883Z,59.45
2023-03-11T13:46:22.005Z,53.84
2023-03-11T13:50:22.171Z,58.17
2023-03-11T13:54:23.163Z,58.28
2023-03-11T13:58:22.471Z,61.39
2023-03-11T14:02:22.640Z,55.32
2023-03-11T14:06:22.789Z,28.60
2023-03-11T14:10:22.941Z,50.70
2023-03-11T14:14:23.109Z,57.20
2023-03-11T14:18:23.274Z,49.42
2023-03-11T14:22:23.460Z,51.01
2023-03-11T14:26:23.640Z,54.11
2023-03-11T14:30:23.815Z,51.12
2023-03-11T14:34:23.986Z,49.90
2023-03-11T14:38:24.139Z,51.16
2023-03-11T14:42:24.313Z,51.18
2023-03-11T14:46:24.626Z,50.95
2023-03-11T14:50:24.662Z,51.06
2023-03-11T14:54:24.877Z,47.88
2023-03-11T14:58:25.031Z,47.46
2023-03-11T15:02:25.241Z,53.00
2023-03-11T15:06:25.447Z,50.58
2023-03-11T15:10:25.611Z,49.09
2023-03-11T15:14:25.804Z,53.08
2023-03-11T15:18:25.967Z,51.09
2023-03-11T15:22:26.150Z,51.27
2023-03-11T15:26:26.338Z,39.31
2023-03-11T15:30:26.529Z,42.72
2023-03-11T15:34:26.717Z,35.21
2023-03-11T15:38:26.893Z,49.66
2023-03-11T15:42:27.108Z,61.41
2023-03-11T15:46:27.335Z,59.16
2023-03-11T15:50:40.097Z,50.66
2023-03-11T15:54:28.446Z,52.21
2023-03-11T15:58:27.401Z,50.06
2023-03-11T16:02:27.514Z,54.94
2023-03-11T16:06:27.704Z,51.52
2023-03-11T16:10:27.916Z,54.78
2023-03-11T16:14:28.096Z,43.00
2023-03-11T16:18:28.294Z,48.61
2023-03-11T16:22:28.509Z,29.03
2023-03-11T16:26:28.734Z,43.86
2023-03-11T16:30:28.931Z,44.00
2023-03-11T16:34:29.134Z,44.95
2023-03-11T16:38:29.337Z,48.61
2023-03-11T16:42:29.558Z,48.06
2023-03-11T16:46:29.825Z,41.73
2023-03-11T16:50:30.033Z,47.66
2023-03-11T16:54:29.947Z,37.59
2023-03-11T16:58:29.921Z,25.34
2023-03-11T17:02:29.869Z,35.55
2023-03-11T17:06:29.819Z,40.06
2023-03-11T17:10:29.903Z,47.19
2023-03-11T17:14:29.763Z,45.20
2023-03-11T17:18:29.737Z,37.01
2023-03-11T17:22:29.674Z,33.45
2023-03-11T17:26:29.670Z,47.59
2023-03-11T17:30:36.885Z,44.46
2023-03-11T17:34:30.581Z,36.09
2023-03-11T17:38:29.583Z,39.34
2023-03-11T17:42:29.534Z,44.33
2023-03-11T17:46:29.497Z,45.65
2023-03-11T17:50:29.445Z,45.97
2023-03-11T17:54:29.404Z,30.41
2023-03-11T17:58:29.373Z,37.75
2023-03-11T18:02:29.344Z,30.62
2023-03-11T18:06:29.298Z,45.03
2023-03-11T18:10:29.271Z,25.96
2023-03-11T18:14:29.212Z,42.96
2023-03-11T18:18:29.383Z,25.00
2023-03-11T18:22:29.359Z,42.55
2023-03-11T18:26:29.320Z,46.09
2023-03-11T18:30:29.265Z,37.22
2023-03-11T18:34:29.239Z,44.07
2023-03-11T18:38:29.192Z,43.33
2023-03-11T18:42:29.173Z,39.09
2023-03-11T18:46:29.113Z,40.85
2023-03-11T18:50:29.084Z,43.50
2023-03-11T18:54:29.041Z,35.20
2023-03-11T18:58:29.225Z,36.28
2023-03-11T19:02:29.209Z,39.33
2023-03-11T19:06:29.163Z,40.88
2023-03-11T19:10:29.124Z,25.92
2023-03-11T19:14:29.081Z,44.35
2023-03-11T19:18:29.049Z,47.58
2023-03-11T19:22:29.030Z,49.44
2023-03-11T19:26:43.688Z,38.29
2023-03-11T19:30:29.998Z,40.24
2023-03-11T19:34:28.981Z,44.20
2023-03-11T19:38:28.964Z,40.55
2023-03-11T19:42:28.906Z,44.95
2023-03-11T19:46:28.919Z,41.20
2023-03-11T19:50:28.851Z,47.47
2023-03-11T19:54:28.824Z,44.23
2023-03-11T19:58:30.396Z,40.48
2023-03-11T20:02:28.767Z,41.18
2023-03-11T20:06:28.806Z,44.37
2023-03-11T20:10:28.777Z,48.49
2023-03-11T20:14:28.689Z,38.95
2023-03-11T20:18:28.664Z,44.54
2023-03-11T20:22:28.585Z,49.73
2023-03-11T20:26:28.568Z,45.39
2023-03-11T20:30:28.619Z,48.38
2023-03-11T20:34:28.508Z,45.75
2023-03-11T20:38:28.444Z,45.74
2023-03-11T20:42:28.545Z,34.79
2023-03-11T20:46:28.462Z,39.37
2023-03-11T20:50:28.378Z,47.35
2023-03-11T20:54:28.328Z,36.84
2023-03-11T20:58:28.293Z,44.78
2023-03-11T21:02:28.338Z,35.10
2023-03-11T21:06:28.266Z,36.69
2023-03-11T21:10:28.252Z,29.57
2023-03-11T21:14:28.192Z,28.37
2023-03-11T21:18:28.117Z,36.94
2023-03-11T21:22:28.277Z,35.88
2023-03-11T21:26:28.199Z,30.94
2023-03-11T21:30:28.240Z,35.93
2023-03-11T21:34:28.258Z,31.42
2023-03-11T21:38:28.285Z,34.66
2023-03-11T21:42:28.044Z,34.59
2023-03-11T21:46:28.152Z,37.19
2023-03-11T21:50:27.985Z,28.35
2023-03-11T21:54:28.056Z,37.78
2023-03-11T21:58:28.073Z,30.86
2023-03-11T22:02:28.293Z,27.52
2023-03-11T22:06:28.424Z,27.93
2023-03-11T22:10:28.589Z,31.98
2023-03-11T22:14:28.857Z,33.17
2023-03-11T22:18:28.934Z,31.19
2023-03-11T22:22:29.077Z,25.18
2023-03-11T22:26:29.245Z,32.06
2023-03-11T22:30:29.357Z,32.11
2023-03-11T22:34:29.512Z,33.75
2023-03-11T22:38:29.698Z,43.46
2023-03-11T22:42:29.864Z,29.20
2023-03-11T22:46:30.147Z,39.21
2023-03-11T22:50:30.239Z,39.75
2023-03-11T22:54:30.435Z,31.57
2023-03-11T22:58:30.564Z,29.10
2023-03-11T23:02:30.749Z,26.31
2023-03-11T23:06:30.852Z,45.27
2023-03-11T23:10:31.035Z,34.86
2023-03-11T23:14:44.099Z,34.16
2023-03-11T23:18:32.154Z,25.18
2023-03-11T23:22:31.127Z,29.99
2023-03-11T23:26:31.301Z,31.74
2023-03-11T23:30:31.705Z,30.81
2023-03-11T23:34:31.657Z,29.93
2023-03-11T23:38:31.847Z,32.80
2023-03-11T23:42:32.002Z,35.15
2023-03-11T23:46:32.171Z,39.74
2023-03-11T23:50:32.294Z,35.80
2023-03-11T23:54:32.457Z,36.88
2023-03-11T23:58:32.611Z,40.05
